This is the latest recevied weather packets stored in our database for station/object OE3WYC-1. If no packets are shown the sender has not sent any weather packets the latest 10 day(s).
| Time | Temp. | Humidity | Pressure | Rain* | Wind** | Luminosity | Snow |
|---|---|---|---|---|---|---|---|
| 1777221905 | 16.11° C | 32% | 1020.8 hPa | 0 mm | - | - | - |
| 1777221005 | 16.11° C | 32% | 1020.6 hPa | 0 mm | - | - | - |
| 1777220405 | 16.67° C | 32% | 1020.7 hPa | 0 mm | - | - | - |
| 1777218905 | 16.67° C | 32% | 1020.8 hPa | 0 mm | - | - | - |
| 1777217705 | 16.67° C | 30% | 1020.9 hPa | 0 mm | - | - | - |
| 1777211706 | 16.67° C | 32% | 1021 hPa | 0 mm | - | - | - |
| 1777209606 | 16.67° C | 33% | 1020.9 hPa | 0 mm | - | - | - |
| 1777206305 | 16.67° C | 33% | 1021.3 hPa | 0 mm | - | - | - |
| 1777201505 | 15.56° C | 35% | 1021.3 hPa | 0 mm | - | - | - |
| 1777197605 | 14.44° C | 36% | 1021.5 hPa | 0 mm | - | - | - |
| 1777193705 | 13.33° C | 40% | 1020.9 hPa | 0 mm | - | - | - |
| 1777191005 | 12.78° C | 44% | 1020.7 hPa | 0 mm | - | - | - |
| 1777190107 | 12.78° C | 47% | 1020.6 hPa | 0 mm | - | - | - |
| 1777187106 | 12.78° C | 49% | 1019.6 hPa | 0 mm | - | - | - |
| 1777186505 | 13.33° C | 49% | 1019.4 hPa | 0 mm | - | - | - |
| 1777185905 | 13.33° C | 48% | 1019.1 hPa | 0 mm | - | - | - |
| 1777185605 | 13.33° C | 48% | 1019 hPa | 0 mm | - | - | - |
| 1777182606 | 13.89° C | 42% | 1018.1 hPa | 0 mm | - | - | - |
| 1777182005 | 13.89° C | 41% | 1018 hPa | 0 mm | - | - | - |
| 1777181405 | 13.89° C | 41% | 1017.8 hPa | 0 mm | - | - | - |
| 1777179007 | 13.33° C | 39% | 1017.1 hPa | 0 mm | - | - | - |
| 1777178405 | 13.33° C | 38% | 1016.8 hPa | 0 mm | - | - | - |
* Rain latest hour (hover to see other rain measurements)
** Current wind speed in m/s (hover to see current wind gust speed)